Time;durP1;ratioP1;P1;durP2;ratioP2;P2;SDS_P1;SDS_P2;PMS_P1;PMS_P2;Temp;Humidity;BMP_temperature;BMP_pressure;BME280_temperature;BME280_humidity;BME280_pressure;Samples;Min_cycle;Max_cycle;Signal;HPM_P1;HPM_P2
2022/10/31 00:00:18;;;;;;;116.97;27.27;;;10.30;99.90;;;;;;5102212;28;20788;-82
2022/10/31 00:02:45;;;;;;;96.27;21.27;;;10.30;99.90;;;;;;5104402;28;20450;-82
2022/10/31 00:05:12;;;;;;;110.20;22.43;;;10.30;99.90;;;;;;5101459;28;20470;-82
2022/10/31 00:07:41;;;;;;;89.10;20.07;;;10.30;99.90;;;;;;5090618;28;20455;-82
2022/10/31 00:10:09;;;;;;;64.40;18.30;;;10.30;99.90;;;;;;5095027;28;20569;-81
2022/10/31 00:12:36;;;;;;;25.90;12.73;;;10.20;99.90;;;;;;5087433;28;21098;-81
2022/10/31 00:15:03;;;;;;;30.37;12.33;;;10.10;99.90;;;;;;5099591;28;20454;-81
2022/10/31 00:17:30;;;;;;;99.53;18.00;;;10.20;99.90;;;;;;5092737;28;20458;-81
2022/10/31 00:19:57;;;;;;;35.87;13.57;;;10.30;99.90;;;;;;5090459;28;20455;-82
2022/10/31 00:22:24;;;;;;;64.00;16.77;;;10.20;99.90;;;;;;5085852;28;20498;-81
2022/10/31 00:24:53;;;;;;;78.73;18.33;;;10.20;99.90;;;;;;5089829;28;20527;-82
2022/10/31 00:27:19;;;;;;;50.27;15.10;;;10.10;99.90;;;;;;5091426;28;20543;-81
2022/10/31 00:29:46;;;;;;;96.63;22.70;;;10.10;99.90;;;;;;5083903;28;20970;-81
2022/10/31 00:32:13;;;;;;;52.83;16.97;;;10.00;99.90;;;;;;5090260;28;20510;-81
2022/10/31 00:34:40;;;;;;;172.03;29.83;;;10.00;99.90;;;;;;5086648;28;20455;-82
2022/10/31 00:37:07;;;;;;;65.60;17.30;;;10.00;99.90;;;;;;5099428;28;20959;-81
2022/10/31 00:39:37;;;;;;;103.43;18.93;;;10.10;99.90;;;;;;5089928;28;20462;-83
2022/10/31 00:42:06;;;;;;;74.90;19.47;;;10.10;99.90;;;;;;5091165;28;20461;-80
2022/10/31 00:44:32;;;;;;;80.77;19.17;;;10.10;99.90;;;;;;5098240;28;20466;-79
2022/10/31 00:46:59;;;;;;;81.03;17.53;;;10.10;99.90;;;;;;5098318;28;20458;-79
2022/10/31 00:49:26;;;;;;;153.60;21.33;;;9.90;99.90;;;;;;5094997;28;20497;-79
2022/10/31 00:51:53;;;;;;;114.00;21.93;;;9.80;99.90;;;;;;5093358;28;21099;-80
2022/10/31 00:54:20;;;;;;;80.87;18.30;;;9.70;99.90;;;;;;5091567;28;20446;-79
2022/10/31 00:56:47;;;;;;;64.70;15.47;;;9.70;99.90;;;;;;5089515;28;20466;-79
2022/10/31 00:59:15;;;;;;;48.70;14.53;;;9.70;99.90;;;;;;5096384;28;20501;-79
2022/10/31 01:01:42;;;;;;;35.13;12.27;;;9.70;99.90;;;;;;5091245;28;20499;-79
2022/10/31 01:04:09;;;;;;;25.97;12.37;;;9.70;99.90;;;;;;5090155;28;20463;-80
2022/10/31 01:06:36;;;;;;;41.20;12.50;;;9.80;99.90;;;;;;5094702;28;20522;-80
2022/10/31 01:09:03;;;;;;;31.20;10.70;;;9.70;99.90;;;;;;5092177;28;20554;-80
2022/10/31 01:11:30;;;;;;;31.53;12.27;;;9.80;99.90;;;;;;5085539;28;20918;-80
2022/10/31 01:13:57;;;;;;;29.57;11.47;;;9.80;99.90;;;;;;5098036;28;20446;-79
2022/10/31 01:16:29;;;;;;;44.13;13.40;;;9.70;99.90;;;;;;5095582;28;20528;-80
2022/10/31 01:18:56;;;;;;;8.60;8.00;;;9.70;99.90;;;;;;5105776;28;20471;-79
2022/10/31 01:21:26;;;;;;;9.47;8.57;;;9.70;99.90;;;;;;5089827;28;20480;-79
2022/10/31 01:23:55;;;;;;;40.57;12.03;;;9.70;99.90;;;;;;5089953;28;20451;-79
2022/10/31 01:26:23;;;;;;;92.53;14.30;;;9.80;99.90;;;;;;5095846;28;20447;-79
2022/10/31 01:28:52;;;;;;;18.33;8.97;;;9.80;99.90;;;;;;5093127;28;21078;-79
2022/10/31 01:31:21;;;;;;;90.70;16.23;;;9.70;99.90;;;;;;5094962;28;20457;-80
2022/10/31 01:33:50;;;;;;;104.60;20.73;;;9.80;99.90;;;;;;5090844;28;20518;-79
2022/10/31 01:36:19;;;;;;;70.87;14.70;;;9.80;99.90;;;;;;5089773;28;20554;-80
2022/10/31 01:38:47;;;;;;;67.50;14.40;;;9.80;99.90;;;;;;5090563;28;20532;-80
2022/10/31 01:41:15;;;;;;;95.80;15.37;;;9.80;99.90;;;;;;5103217;28;20530;-80
2022/10/31 01:43:48;;;;;;;16.00;8.30;;;9.80;99.90;;;;;;5093529;28;20547;-80
2022/10/31 01:46:18;;;;;;;101.00;21.30;;;9.90;99.90;;;;;;5088424;28;20452;-80
2022/10/31 01:48:46;;;;;;;66.23;13.90;;;10.00;99.90;;;;;;5091470;28;20482;-79
2022/10/31 01:51:17;;;;;;;69.63;17.70;;;10.00;99.90;;;;;;5084637;28;20455;-81
2022/10/31 01:53:45;;;;;;;63.37;18.20;;;9.90;99.90;;;;;;5090925;28;20820;-81
2022/10/31 01:56:13;;;;;;;68.23;13.93;;;10.00;99.90;;;;;;5103349;28;20445;-81
2022/10/31 01:58:41;;;;;;;163.47;24.67;;;10.00;99.90;;;;;;5089651;28;20467;-81
2022/10/31 02:01:08;;;;;;;172.27;31.97;;;10.00;99.90;;;;;;5091403;28;20470;-81
2022/10/31 02:03:35;;;;;;;85.70;15.23;;;9.90;99.90;;;;;;5092337;28;20511;-81
2022/10/31 02:06:07;;;;;;;157.10;19.63;;;9.80;99.90;;;;;;5096024;28;20462;-81
2022/10/31 02:08:38;;;;;;;98.00;18.10;;;9.80;99.90;;;;;;5102433;28;20474;-81
2022/10/31 02:11:06;;;;;;;80.07;12.03;;;9.80;99.90;;;;;;5096947;28;20461;-81
2022/10/31 02:13:35;;;;;;;88.10;18.20;;;9.90;99.90;;;;;;5094340;28;20445;-81
2022/10/31 02:16:02;;;;;;;143.50;25.40;;;9.90;99.90;;;;;;5097521;28;20586;-81
2022/10/31 02:18:31;;;;;;;126.07;23.50;;;9.90;99.90;;;;;;5097423;28;21008;-81
2022/10/31 02:21:07;;;;;;;79.87;13.00;;;9.90;99.90;;;;;;5094735;28;20458;-81
2022/10/31 02:24:09;;;;;;;81.60;15.40;;;9.90;99.90;;;;;;5089328;28;20442;-81
2022/10/31 02:26:52;;;;;;;142.17;22.57;;;9.80;99.90;;;;;;5091769;28;20453;-81
2022/10/31 02:29:51;;;;;;;95.17;19.00;;;9.80;99.90;;;;;;5091380;28;20479;-81
2022/10/31 02:32:27;;;;;;;57.73;13.47;;;9.80;99.90;;;;;;5098912;28;20451;-81
2022/10/31 02:35:01;;;;;;;34.50;8.70;;;9.70;99.90;;;;;;5103579;28;20458;-81
2022/10/31 02:37:37;;;;;;;46.27;10.40;;;9.70;99.90;;;;;;5093817;28;20559;-81
2022/10/31 02:40:11;;;;;;;67.63;14.23;;;9.70;99.90;;;;;;5097884;28;20596;-81
2022/10/31 02:42:47;;;;;;;23.53;7.90;;;9.60;99.90;;;;;;5098096;28;20454;-79
2022/10/31 02:45:20;;;;;;;14.77;7.07;;;9.60;99.90;;;;;;5104324;28;20522;-79
2022/10/31 02:47:51;;;;;;;24.63;8.00;;;9.60;99.90;;;;;;5098171;28;20957;-78
2022/10/31 02:50:23;;;;;;;52.10;9.27;;;9.60;99.90;;;;;;5103638;28;20508;-79
2022/10/31 02:52:52;;;;;;;100.90;16.97;;;9.70;99.90;;;;;;5106428;28;20481;-79
2022/10/31 02:55:57;;;;;;;60.53;15.00;;;9.60;99.90;;;;;;5098142;27;20535;-79
2022/10/31 02:58:29;;;;;;;41.87;9.00;;;9.60;99.90;;;;;;5077637;28;20458;-79
2022/10/31 03:01:10;;;;;;;33.60;9.70;;;9.50;99.90;;;;;;5101657;28;20450;-78
2022/10/31 03:03:50;;;;;;;118.27;22.87;;;9.40;99.90;;;;;;5101783;28;20466;-78
2022/10/31 03:06:25;;;;;;;111.13;19.13;;;9.50;99.90;;;;;;5104088;28;20788;-78
2022/10/31 03:08:58;;;;;;;68.80;15.43;;;9.70;99.90;;;;;;5105426;28;20455;-78
2022/10/31 03:11:32;;;;;;;45.80;13.00;;;9.70;99.90;;;;;;5107559;28;20502;-79
2022/10/31 03:14:04;;;;;;;113.47;16.87;;;9.70;99.90;;;;;;5097272;28;20465;-79
2022/10/31 03:16:40;;;;;;;84.90;12.87;;;9.70;99.90;;;;;;5106674;28;20454;-79
2022/10/31 03:19:11;;;;;;;77.90;14.40;;;9.70;99.90;;;;;;5107724;27;20441;-78
2022/10/31 03:21:43;;;;;;;82.50;17.20;;;9.60;99.90;;;;;;5105088;28;20466;-79
2022/10/31 03:24:12;;;;;;;46.87;14.70;;;9.70;99.90;;;;;;5114781;28;20453;-79
2022/10/31 03:26:43;;;;;;;118.20;23.53;;;9.70;99.90;;;;;;5105199;28;20917;-79
2022/10/31 03:29:14;;;;;;;26.17;7.23;;;9.70;99.90;;;;;;5104498;28;21241;-79
2022/10/31 03:31:48;;;;;;;111.10;18.90;;;9.60;99.90;;;;;;5105298;28;20446;-79
2022/10/31 03:34:18;;;;;;;46.20;16.53;;;9.60;99.90;;;;;;5097364;28;20447;-78
2022/10/31 03:36:47;;;;;;;20.17;7.37;;;9.60;99.90;;;;;;5098637;28;20828;-78
2022/10/31 03:39:16;;;;;;;145.23;23.57;;;9.50;99.90;;;;;;5100539;28;20450;-79
2022/10/31 03:41:47;;;;;;;34.47;10.50;;;9.50;99.90;;;;;;5105881;28;20529;-79
2022/10/31 03:44:17;;;;;;;114.60;15.77;;;9.40;99.90;;;;;;5106473;27;20510;-79
2022/10/31 03:46:45;;;;;;;87.77;13.73;;;9.40;99.90;;;;;;5093592;28;20516;-79
2022/10/31 03:49:12;;;;;;;38.63;8.00;;;9.40;99.90;;;;;;5093644;28;20503;-79
2022/10/31 03:51:46;;;;;;;20.10;7.50;;;9.30;99.90;;;;;;5105011;28;20450;-79
2022/10/31 03:54:21;;;;;;;47.10;10.50;;;9.30;99.90;;;;;;5106116;28;20450;-79
2022/10/31 03:56:52;;;;;;;51.67;9.40;;;9.30;99.90;;;;;;5102921;28;20541;-78
2022/10/31 03:59:25;;;;;;;92.43;14.33;;;9.30;99.90;;;;;;5101976;28;20457;-79
2022/10/31 04:01:57;;;;;;;44.93;7.80;;;9.20;99.90;;;;;;5093930;28;20522;-79
2022/10/31 04:04:25;;;;;;;122.43;21.87;;;9.20;99.90;;;;;;5094698;28;20511;-79
2022/10/31 04:06:55;;;;;;;77.93;17.63;;;9.20;99.90;;;;;;5104882;28;20962;-79
2022/10/31 04:09:23;;;;;;;35.27;10.40;;;9.30;99.90;;;;;;5105204;28;20528;-78
2022/10/31 04:11:53;;;;;;;62.70;13.03;;;9.30;99.90;;;;;;5098144;28;20530;-78
2022/10/31 04:14:23;;;;;;;43.10;9.83;;;9.30;99.90;;;;;;5100379;28;21249;-79
2022/10/31 04:16:50;;;;;;;52.27;12.80;;;9.30;99.90;;;;;;5103783;28;20446;-79
2022/10/31 04:19:17;;;;;;;64.90;12.93;;;9.30;99.90;;;;;;5096311;28;20512;-79
2022/10/31 04:21:44;;;;;;;47.03;13.43;;;9.30;99.90;;;;;;5092138;28;20508;-79
2022/10/31 04:24:12;;;;;;;48.07;10.47;;;9.40;99.90;;;;;;5092965;28;20524;-78
2022/10/31 04:26:39;;;;;;;41.27;10.30;;;9.40;99.90;;;;;;5103267;28;20784;-79
2022/10/31 04:29:06;;;;;;;85.20;14.93;;;9.40;99.90;;;;;;5102345;28;20506;-79
2022/10/31 04:31:33;;;;;;;107.60;17.03;;;9.40;99.90;;;;;;5103415;28;20521;-79
2022/10/31 04:34:00;;;;;;;115.17;18.00;;;9.40;99.90;;;;;;5090809;28;20526;-80
2022/10/31 04:36:27;;;;;;;34.70;7.57;;;9.30;99.90;;;;;;5096049;28;20803;-79
2022/10/31 04:38:54;;;;;;;162.73;31.13;;;9.20;99.90;;;;;;5100494;28;20449;-79
2022/10/31 04:41:23;;;;;;;130.83;17.93;;;9.30;99.90;;;;;;5101100;28;20461;-80
2022/10/31 04:43:50;;;;;;;70.33;15.90;;;9.20;99.90;;;;;;5103996;28;20526;-79
2022/10/31 04:46:16;;;;;;;84.17;18.70;;;9.20;99.90;;;;;;5106051;28;20499;-79
2022/10/31 04:48:43;;;;;;;36.47;12.20;;;9.10;99.90;;;;;;5089434;28;20462;-81
2022/10/31 04:51:10;;;;;;;54.00;9.10;;;9.10;99.90;;;;;;5085671;28;20559;-80
2022/10/31 04:53:38;;;;;;;24.53;7.50;;;9.00;99.90;;;;;;5084335;28;20543;-80
2022/10/31 04:56:06;;;;;;;27.20;8.10;;;9.10;99.90;;;;;;5089262;28;20785;-80
2022/10/31 04:58:34;;;;;;;64.07;8.37;;;9.00;99.90;;;;;;5084329;28;20463;-80
2022/10/31 05:01:01;;;;;;;96.60;11.63;;;9.00;99.90;;;;;;5092233;28;20451;-79
2022/10/31 05:03:28;;;;;;;77.90;13.63;;;9.10;99.90;;;;;;5089424;28;20865;-80
2022/10/31 05:05:55;;;;;;;49.70;9.37;;;9.10;99.90;;;;;;5085639;28;20464;-79
2022/10/31 05:08:22;;;;;;;21.87;4.83;;;9.00;99.90;;;;;;5098025;28;20451;-79
2022/10/31 05:10:49;;;;;;;25.93;5.50;;;9.00;99.90;;;;;;5082490;28;20482;-80
2022/10/31 05:13:16;;;;;;;16.13;6.20;;;8.90;99.90;;;;;;5083653;28;20443;-79
2022/10/31 05:15:44;;;;;;;46.53;8.30;;;8.90;99.90;;;;;;5081936;28;20734;-80
2022/10/31 05:18:11;;;;;;;23.83;6.07;;;8.90;99.90;;;;;;5087252;28;20458;-80
2022/10/31 05:20:38;;;;;;;26.93;7.03;;;8.80;99.90;;;;;;5082296;28;21021;-79
2022/10/31 05:23:05;;;;;;;14.30;7.17;;;8.90;99.90;;;;;;5087394;28;20543;-80
2022/10/31 05:25:32;;;;;;;28.20;8.20;;;8.90;99.90;;;;;;5090247;28;20459;-79
2022/10/31 05:27:59;;;;;;;59.10;12.43;;;9.00;99.90;;;;;;5095932;28;20487;-79
2022/10/31 05:30:28;;;;;;;36.33;8.73;;;9.00;99.90;;;;;;5087849;28;20490;-79
2022/10/31 05:32:57;;;;;;;40.43;11.27;;;9.10;99.90;;;;;;5089195;28;20958;-79
2022/10/31 05:35:25;;;;;;;27.57;7.70;;;9.10;99.90;;;;;;5087994;28;21017;-80
2022/10/31 05:37:53;;;;;;;33.30;7.20;;;9.10;99.90;;;;;;5084924;28;20528;-80
2022/10/31 05:40:21;;;;;;;11.83;4.47;;;9.00;99.90;;;;;;5084804;28;20446;-79
2022/10/31 05:42:51;;;;;;;26.43;7.90;;;9.10;99.90;;;;;;5085396;28;20540;-79
2022/10/31 05:45:19;;;;;;;12.27;5.70;;;8.90;99.90;;;;;;5086696;28;20520;-79
2022/10/31 05:47:52;;;;;;;39.00;6.67;;;8.90;99.90;;;;;;5083918;28;20462;-79
2022/10/31 05:50:20;;;;;;;5.40;3.67;;;9.00;99.90;;;;;;5084145;28;20478;-79
2022/10/31 05:52:47;;;;;;;7.07;4.60;;;8.80;99.90;;;;;;5086264;28;20459;-80
2022/10/31 05:55:15;;;;;;;18.03;5.33;;;8.80;99.90;;;;;;5088312;28;20520;-79
2022/10/31 05:57:42;;;;;;;14.67;5.60;;;8.90;99.90;;;;;;5085085;28;20463;-78
2022/10/31 06:00:10;;;;;;;42.40;9.73;;;8.90;99.90;;;;;;5090063;28;20527;-78
2022/10/31 06:02:37;;;;;;;31.10;7.40;;;8.90;99.90;;;;;;5093357;28;20516;-78
2022/10/31 06:05:04;;;;;;;14.70;6.30;;;8.90;99.90;;;;;;5089764;28;20840;-79
2022/10/31 06:07:36;;;;;;;41.60;5.20;;;8.90;99.90;;;;;;5089184;28;20504;-78
2022/10/31 06:10:06;;;;;;;21.00;4.90;;;9.00;99.90;;;;;;5087694;28;20488;-78
2022/10/31 06:12:37;;;;;;;18.43;5.53;;;9.10;99.90;;;;;;5086355;28;20447;-78
2022/10/31 06:15:05;;;;;;;61.80;11.20;;;9.00;99.90;;;;;;5090381;28;20876;-78
2022/10/31 06:17:31;;;;;;;147.20;22.17;;;9.00;99.90;;;;;;5089492;28;20860;-78
2022/10/31 06:19:58;;;;;;;230.07;30.50;;;9.10;99.90;;;;;;5090946;28;20451;-78
2022/10/31 06:22:25;;;;;;;97.13;12.80;;;9.10;99.90;;;;;;5094616;28;20791;-78
2022/10/31 06:24:54;;;;;;;66.93;13.10;;;9.10;99.90;;;;;;5091933;28;21086;-78
2022/10/31 06:27:21;;;;;;;35.63;6.20;;;9.10;99.90;;;;;;5088015;28;20815;-78
2022/10/31 06:29:48;;;;;;;128.77;17.23;;;9.00;99.90;;;;;;5092048;28;20446;-78
2022/10/31 06:32:15;;;;;;;10.20;6.20;;;8.90;99.90;;;;;;5108095;28;20442;-78
2022/10/31 06:34:43;;;;;;;52.73;11.33;;;9.00;99.90;;;;;;5101100;28;20525;-79
2022/10/31 06:37:12;;;;;;;61.57;9.73;;;9.10;99.90;;;;;;5100502;28;20507;-78
2022/10/31 06:39:39;;;;;;;77.73;10.83;;;9.10;99.90;;;;;;5090615;28;20447;-79
2022/10/31 06:42:07;;;;;;;65.17;11.83;;;9.10;99.90;;;;;;5097268;28;20478;-78
2022/10/31 06:44:34;;;;;;;40.33;7.40;;;9.10;99.90;;;;;;5088210;28;20511;-82
2022/10/31 06:47:01;;;;;;;63.43;9.50;;;9.20;99.90;;;;;;5090132;28;20470;-78
2022/10/31 06:49:28;;;;;;;33.13;6.70;;;9.10;99.90;;;;;;5094440;28;20543;-78
2022/10/31 06:51:55;;;;;;;27.67;6.90;;;9.20;99.90;;;;;;5094593;28;20539;-78
2022/10/31 06:54:22;;;;;;;119.93;15.30;;;9.20;99.90;;;;;;5086730;28;20926;-78
2022/10/31 06:56:49;;;;;;;47.83;11.13;;;9.20;99.90;;;;;;5086618;28;20528;-78
2022/10/31 06:59:17;;;;;;;92.33;9.90;;;9.10;99.90;;;;;;5094607;28;20462;-78
2022/10/31 07:01:44;;;;;;;60.63;9.30;;;9.20;99.90;;;;;;5086157;28;20451;-78
2022/10/31 07:04:12;;;;;;;43.83;7.60;;;9.30;99.90;;;;;;5087242;28;20450;-78
2022/10/31 07:06:39;;;;;;;23.93;6.00;;;9.20;99.90;;;;;;5096027;28;20468;-79
2022/10/31 07:09:06;;;;;;;17.43;4.47;;;9.30;99.90;;;;;;5093203;28;20470;-79
2022/10/31 07:11:33;;;;;;;9.80;3.90;;;9.30;99.90;;;;;;5088109;28;20481;-79
2022/10/31 07:14:00;;;;;;;47.43;11.10;;;9.40;99.90;;;;;;5089304;28;20462;-79
2022/10/31 07:16:29;;;;;;;116.80;17.60;;;9.40;99.90;;;;;;5087753;28;20528;-79
2022/10/31 07:18:55;;;;;;;63.43;12.00;;;9.50;99.90;;;;;;5092684;28;20466;-80
2022/10/31 07:21:22;;;;;;;199.20;30.30;;;9.70;99.90;;;;;;5084353;28;20486;-81
2022/10/31 07:23:50;;;;;;;168.00;22.67;;;9.80;99.90;;;;;;5084925;28;20546;-81
2022/10/31 07:26:17;;;;;;;133.97;21.23;;;9.90;99.90;;;;;;5088111;28;20459;-80
2022/10/31 07:28:44;;;;;;;112.60;14.03;;;9.80;99.90;;;;;;5090272;28;20490;-80
2022/10/31 07:31:10;;;;;;;105.60;16.90;;;9.90;99.90;;;;;;5108201;28;20478;-81
2022/10/31 07:33:39;;;;;;;46.77;9.77;;;10.00;99.90;;;;;;5111345;28;20523;-81
2022/10/31 07:36:07;;;;;;;44.87;7.07;;;9.80;99.90;;;;;;5095150;28;20524;-79
2022/10/31 07:38:34;;;;;;;137.43;23.30;;;9.80;99.90;;;;;;5093266;28;20450;-79
2022/10/31 07:41:01;;;;;;;91.37;14.13;;;9.90;99.90;;;;;;5087472;28;20560;-79
2022/10/31 07:43:28;;;;;;;22.13;4.30;;;10.10;99.90;;;;;;5092857;28;20446;-79
2022/10/31 07:45:55;;;;;;;76.97;11.67;;;10.10;99.90;;;;;;5089488;28;20439;-79
2022/10/31 07:48:22;;;;;;;97.43;21.30;;;10.00;99.90;;;;;;5088279;28;20443;-79
2022/10/31 07:50:50;;;;;;;258.90;38.17;;;10.10;99.90;;;;;;5088923;28;20474;-79
2022/10/31 07:53:17;;;;;;;220.57;37.43;;;10.00;99.90;;;;;;5088787;28;20467;-79
2022/10/31 07:55:45;;;;;;;59.77;9.77;;;10.00;99.90;;;;;;5083493;28;20515;-80
2022/10/31 07:58:13;;;;;;;45.43;13.53;;;10.10;99.90;;;;;;5091507;28;20913;-79
2022/10/31 08:00:42;;;;;;;105.37;18.00;;;10.00;99.90;;;;;;5091083;28;20523;-79
2022/10/31 08:03:11;;;;;;;221.17;69.10;;;10.20;99.90;;;;;;5094769;28;20446;-79
2022/10/31 08:05:39;;;;;;;251.30;84.50;;;10.30;99.90;;;;;;5087351;28;20516;-79
2022/10/31 08:08:08;;;;;;;205.50;108.13;;;10.60;99.90;;;;;;5099898;28;20439;-79
2022/10/31 08:10:36;;;;;;;92.97;38.23;;;10.70;99.90;;;;;;5085655;28;20459;-79
2022/10/31 08:13:04;;;;;;;191.63;25.87;;;10.60;99.90;;;;;;5086085;28;20996;-79
2022/10/31 08:15:33;;;;;;;254.20;59.27;;;10.40;99.90;;;;;;5088829;28;20565;-79
2022/10/31 08:18:01;;;;;;;118.37;14.10;;;10.50;99.90;;;;;;5088575;28;20557;-79
2022/10/31 08:20:28;;;;;;;69.63;9.80;;;10.40;99.90;;;;;;5085289;28;20534;-80
2022/10/31 08:23:00;;;;;;;49.90;7.30;;;10.30;99.90;;;;;;5085629;28;20448;-79
2022/10/31 08:25:30;;;;;;;199.63;79.47;;;10.40;99.90;;;;;;5088023;28;20459;-79
2022/10/31 08:27:57;;;;;;;100.57;22.23;;;10.50;99.90;;;;;;5090977;28;20520;-79
2022/10/31 08:30:29;;;;;;;57.33;25.50;;;10.70;99.90;;;;;;5088489;28;20931;-79
2022/10/31 08:33:01;;;;;;;104.20;53.47;;;10.80;99.90;;;;;;5097860;28;21146;-79
2022/10/31 08:35:28;;;;;;;18.57;5.07;;;10.60;99.90;;;;;;5102222;28;20716;-80
2022/10/31 08:37:55;;;;;;;28.77;4.53;;;10.60;99.90;;;;;;5095979;28;20468;-79
2022/10/31 08:40:23;;;;;;;234.10;96.83;;;10.60;99.90;;;;;;5100039;28;20490;-82
2022/10/31 08:42:58;;;;;;;48.90;23.17;;;10.90;99.90;;;;;;5091385;28;20481;-82
2022/10/31 08:45:25;;;;;;;202.47;119.83;;;11.00;99.90;;;;;;5098386;28;20789;-81
2022/10/31 08:47:52;;;;;;;68.50;35.90;;;11.10;99.90;;;;;;5104202;28;20802;-82
2022/10/31 08:50:19;;;;;;;161.20;33.47;;;11.40;99.90;;;;;;5103103;28;21017;-82
2022/10/31 08:52:46;;;;;;;29.70;8.03;;;11.50;99.90;;;;;;5100633;28;21018;-82
2022/10/31 08:55:14;;;;;;;90.53;15.80;;;11.80;99.90;;;;;;5084765;28;20447;-81
2022/10/31 08:57:41;;;;;;;27.97;7.13;;;11.90;99.90;;;;;;5083949;28;20830;-81
2022/10/31 09:00:10;;;;;;;15.83;4.43;;;11.80;99.90;;;;;;5090074;28;20957;-82
2022/10/31 09:02:38;;;;;;;20.87;5.90;;;11.80;99.90;;;;;;5090779;28;20485;-82
2022/10/31 09:05:05;;;;;;;7.37;5.60;;;11.40;99.90;;;;;;5085392;28;20455;-82
2022/10/31 09:07:32;;;;;;;34.87;5.63;;;11.60;99.90;;;;;;5097930;28;20525;-82
2022/10/31 09:09:59;;;;;;;27.40;5.60;;;11.40;99.90;;;;;;5083539;28;21250;-82
2022/10/31 09:12:26;;;;;;;29.93;27.23;;;11.30;99.90;;;;;;5087785;28;20508;-82
2022/10/31 09:14:54;;;;;;;6.33;5.43;;;11.20;99.90;;;;;;5083351;28;20486;-82
2022/10/31 09:17:22;;;;;;;19.40;7.63;;;11.40;99.90;;;;;;5086747;28;20478;-82
2022/10/31 09:19:49;;;;;;;13.70;6.23;;;11.80;99.90;;;;;;5084372;28;20462;-82
2022/10/31 09:22:16;;;;;;;15.53;5.57;;;11.90;99.90;;;;;;5084755;28;20452;-82
2022/10/31 09:24:43;;;;;;;15.63;8.30;;;12.10;99.90;;;;;;5085244;28;20450;-82
2022/10/31 09:27:10;;;;;;;6.00;4.17;;;12.40;99.90;;;;;;5087932;28;20496;-82
2022/10/31 09:29:37;;;;;;;7.00;6.27;;;12.60;99.90;;;;;;5088630;28;20511;-83
2022/10/31 09:32:04;;;;;;;13.37;5.00;;;12.70;99.90;;;;;;5097124;28;20976;-82
2022/10/31 09:34:32;;;;;;;4.77;4.27;;;12.70;99.90;;;;;;5115484;28;20448;-82
2022/10/31 09:36:59;;;;;;;5.67;3.20;;;12.60;99.90;;;;;;5116149;28;20459;-82
2022/10/31 09:39:26;;;;;;;7.73;4.37;;;12.70;99.90;;;;;;5109734;28;20446;-82
2022/10/31 09:42:13;;;;;;;15.57;4.47;;;12.90;99.90;;;;;;5105661;28;20441;-82
2022/10/31 09:44:50;;;;;;;4.37;3.97;;;13.10;99.90;;;;;;5095373;28;20509;-83
2022/10/31 09:47:27;;;;;;;8.30;4.20;;;13.30;99.90;;;;;;5088312;28;20973;-82
2022/10/31 09:50:08;;;;;;;6.00;4.93;;;13.30;99.90;;;;;;5089741;28;21121;-83
2022/10/31 09:52:40;;;;;;;3.30;3.10;;;13.40;99.90;;;;;;5108306;27;20484;-82
2022/10/31 09:55:15;;;;;;;8.13;3.70;;;13.10;99.90;;;;;;5097545;28;20785;-82
2022/10/31 09:57:43;;;;;;;6.27;3.73;;;12.80;99.90;;;;;;5105252;28;20564;-83
2022/10/31 10:00:17;;;;;;;13.70;3.70;;;12.90;99.90;;;;;;5087685;28;20459;-83
2022/10/31 10:02:48;;;;;;;3.97;3.77;;;13.10;99.90;;;;;;5104430;28;21103;-83
2022/10/31 10:05:22;;;;;;;16.57;3.80;;;13.10;99.90;;;;;;5099193;28;20499;-83
2022/10/31 10:07:59;;;;;;;9.63;4.57;;;13.10;99.90;;;;;;5090089;28;20888;-82
2022/10/31 10:10:35;;;;;;;4.80;4.50;;;13.40;99.90;;;;;;5087923;28;20616;-82
2022/10/31 10:13:14;;;;;;;17.53;5.90;;;13.30;99.90;;;;;;5085545;28;20976;-82
2022/10/31 10:16:00;;;;;;;9.80;5.27;;;13.00;99.90;;;;;;5087270;28;20875;-83
2022/10/31 10:18:38;;;;;;;9.00;4.43;;;12.90;99.90;;;;;;5089403;28;20455;-83
2022/10/31 10:21:22;;;;;;;7.57;4.90;;;13.20;99.90;;;;;;5088913;28;20647;-83
2022/10/31 10:24:02;;;;;;;5.60;4.53;;;13.00;99.90;;;;;;5088177;28;20465;-84
2022/10/31 10:26:36;;;;;;;10.67;6.03;;;13.20;99.90;;;;;;5087683;28;20441;-83
2022/10/31 10:29:13;;;;;;;27.10;7.33;;;13.10;99.90;;;;;;5063159;28;20466;-80
2022/10/31 10:31:43;;;;;;;4.53;4.13;;;13.00;99.90;;;;;;5068191;28;20489;-80
2022/10/31 10:34:16;;;;;;;11.70;5.40;;;12.70;99.90;;;;;;5064872;28;20927;-80
2022/10/31 10:36:48;;;;;;;7.50;4.60;;;12.50;99.90;;;;;;5067926;28;20524;-80
2022/10/31 10:39:19;;;;;;;22.47;6.67;;;12.50;99.90;;;;;;5067890;28;20444;-80
2022/10/31 10:50:00;;;;;;;5.87;4.97;;;12.60;99.90;;;;;;5066291;28;21001;-80
2022/10/31 10:52:36;;;;;;;6.63;5.50;;;12.90;99.90;;;;;;5066902;28;20489;-80
2022/10/31 10:55:14;;;;;;;19.33;5.67;;;12.80;99.90;;;;;;5055788;28;20796;-80
2022/10/31 10:57:54;;;;;;;5.33;4.93;;;12.50;99.90;;;;;;5066136;28;20462;-80
2022/10/31 11:00:23;;;;;;;9.83;5.97;;;12.50;99.90;;;;;;5067424;28;20797;-80
2022/10/31 11:02:51;;;;;;;7.90;6.10;;;12.50;99.90;;;;;;5065603;28;20961;-81
2022/10/31 11:05:25;;;;;;;7.03;6.53;;;12.50;99.90;;;;;;5066880;28;20473;-81
2022/10/31 11:07:53;;;;;;;8.17;5.30;;;12.70;99.90;;;;;;5065046;28;20530;-80
2022/10/31 11:10:20;;;;;;;6.60;5.90;;;13.00;99.90;;;;;;5066202;28;20493;-80
2022/10/31 11:13:05;;;;;;;23.20;7.60;;;13.00;99.90;;;;;;5059940;28;20627;-80
2022/10/31 11:15:52;;;;;;;19.03;6.80;;;12.80;99.90;;;;;;5057685;28;20476;-80
2022/10/31 11:18:24;;;;;;;6.50;5.90;;;12.70;99.90;;;;;;5065087;28;20587;-80
2022/10/31 11:20:54;;;;;;;29.93;7.70;;;12.80;99.90;;;;;;5058599;28;21001;-81
2022/10/31 11:23:24;;;;;;;15.07;6.33;;;12.70;99.90;;;;;;5064916;28;20526;-80
2022/10/31 11:25:53;;;;;;;6.37;5.30;;;12.60;99.90;;;;;;5057820;28;20524;-80
2022/10/31 11:28:20;;;;;;;12.57;7.27;;;12.80;99.90;;;;;;5085287;28;21210;-80
2022/10/31 11:30:50;;;;;;;10.33;6.57;;;12.80;99.90;;;;;;5091663;28;20839;-80
2022/10/31 11:33:20;;;;;;;21.30;7.80;;;12.90;99.90;;;;;;5103997;28;20572;-80
2022/10/31 11:35:49;;;;;;;8.97;6.80;;;13.10;99.90;;;;;;5109773;28;20521;-80
2022/10/31 11:38:19;;;;;;;28.47;7.47;;;12.90;99.90;;;;;;5110623;28;20513;-81
2022/10/31 11:40:57;;;;;;;7.90;6.70;;;13.00;99.90;;;;;;5115569;28;20443;-80
2022/10/31 11:43:24;;;;;;;6.57;6.00;;;13.00;99.90;;;;;;5102692;28;20868;-81
2022/10/31 11:45:51;;;;;;;6.10;5.60;;;13.00;99.90;;;;;;5105788;28;20441;-81
2022/10/31 11:48:21;;;;;;;7.33;6.50;;;13.10;99.90;;;;;;5102294;27;20471;-81
2022/10/31 11:50:53;;;;;;;8.40;7.37;;;13.40;99.90;;;;;;5097796;28;20441;-81
2022/10/31 11:53:29;;;;;;;15.80;6.40;;;13.50;99.90;;;;;;5085644;28;20717;-80
2022/10/31 11:56:13;;;;;;;8.33;6.43;;;13.50;99.90;;;;;;5092394;28;20591;-80
2022/10/31 11:58:42;;;;;;;9.43;7.27;;;13.50;99.90;;;;;;5105751;28;20468;-80
2022/10/31 12:01:24;;;;;;;6.67;6.00;;;13.60;99.90;;;;;;5093996;28;20515;-80
2022/10/31 12:03:59;;;;;;;6.30;5.67;;;13.50;99.90;;;;;;5105603;28;20509;-81
2022/10/31 12:06:31;;;;;;;10.20;6.20;;;13.30;99.90;;;;;;5105370;28;20528;-80
2022/10/31 12:08:58;;;;;;;6.17;5.60;;;13.10;99.90;;;;;;5105487;28;20488;-80
2022/10/31 12:11:38;;;;;;;6.43;5.93;;;12.90;99.90;;;;;;5097933;28;21056;-81
2022/10/31 12:14:17;;;;;;;9.43;8.60;;;13.10;99.90;;;;;;5088421;28;20451;-81
2022/10/31 12:16:51;;;;;;;8.10;7.30;;;13.00;99.90;;;;;;5096187;28;20453;-80
2022/10/31 12:19:29;;;;;;;11.70;9.70;;;13.20;99.90;;;;;;5101642;27;20465;-81
2022/10/31 12:22:05;;;;;;;8.53;7.80;;;13.40;99.90;;;;;;5091195;28;20437;-83
2022/10/31 12:24:52;;;;;;;9.10;8.23;;;13.20;99.90;;;;;;5095015;28;20465;-83
2022/10/31 12:27:35;;;;;;;9.40;8.03;;;13.20;99.90;;;;;;5106436;28;20489;-83
2022/10/31 12:30:23;;;;;;;10.60;9.60;;;13.10;99.90;;;;;;5089213;28;20471;-83
2022/10/31 12:33:06;;;;;;;9.20;8.40;;;13.20;99.90;;;;;;5087944;28;20481;-83
2022/10/31 12:35:44;;;;;;;11.93;10.00;;;13.10;99.90;;;;;;5094147;27;20465;-81
2022/10/31 12:38:26;;;;;;;15.87;11.00;;;13.00;99.90;;;;;;5103282;27;20460;-80
2022/10/31 12:41:13;;;;;;;12.10;10.37;;;13.10;99.90;;;;;;5088465;28;20497;-81
2022/10/31 12:43:47;;;;;;;12.73;11.63;;;13.20;99.90;;;;;;5096634;28;20457;-83
2022/10/31 12:46:23;;;;;;;13.77;12.47;;;13.30;99.90;;;;;;5104184;28;20928;-83
2022/10/31 12:49:08;;;;;;;12.33;11.20;;;13.40;99.90;;;;;;5091091;28;20542;-83
2022/10/31 12:51:47;;;;;;;11.80;10.80;;;13.40;99.90;;;;;;5095228;28;20986;-83
2022/10/31 12:54:28;;;;;;;12.27;10.90;;;13.20;99.90;;;;;;5096976;28;20526;-83
2022/10/31 12:57:05;;;;;;;13.17;11.87;;;13.30;99.90;;;;;;5103113;28;20518;-83
2022/10/31 12:59:40;;;;;;;11.73;10.50;;;13.30;99.90;;;;;;5094852;28;20990;-83
2022/10/31 13:02:17;;;;;;;12.90;11.80;;;13.30;99.90;;;;;;5096904;28;20468;-83